Point Reyes Station, CA

10:58 PM PDT on October 25, 2014 (GMT -0700)
Point Reyes Mesa bluff | Change Station
CLOSE
Current Station
Personal Weather Station
Location: Point Reyes Station, CA
Elevation: 70 ft
Nearby Weather Stations

Elev 70 ft 38.08 °N, 122.82 °W | Updated 55 seconds ago

Partly Cloudy
Partly Cloudy
53.2 °F
Feels Like 53.2 °F
N
2.0
Wind Variable Wind from ESE
Gusts 2.0 mph

Today
High -- | Low -- °F
--% Chance of Precip.
Yesterday
High -- | Low -- °F
Precip. -- in
7:29 AM 6:20 PM
Waxing Crescent, 6% visible
Pressure 30.16 in
Visibility 7.0 miles
Clouds Overcast 5500 ft
Dew Point 52 °F
Humidity 95%
Rainfall 0.40 in
Snow Depth Not available.
UV 0 out of 12
Pollen .10 out of 12
Air Quality Not available.
Flu Activity Sporadic
METAR KO69 260535Z AUTO 00000KT 7SM OVC055 13/12 A3016 RMK AO1

More Conditions Fewer Conditions

Pressure 30.16 in
Visibility 7.0 miles
Clouds Overcast 5500 ft
Dew Point 52 °F
Humidity 95%
Rainfall 0.40 in
Snow Depth Not available.
UV 0 out of 12
Pollen .10 out of 12
Air Quality Not available.
Flu Activity Sporadic
METAR KO69 260535Z AUTO 00000KT 7SM OVC055 13/12 A3016 RMK AO1

More Conditions Fewer Conditions

10-Day Weather Forecast

Almanac

Astronomy

Oct. 25, 2014 Rise Set
Actual Time 7:29 AM PDT 6:20 PM PDT
Civil Twilight 7:02 AM PDT 6:47 PM PDT
Nautical Twilight 6:32 AM PDT 7:17 PM PDT
Astronomical Twilight 6:01 AM PDT 7:48 PM PDT
Moon 9:12 AM PDT (10/25) 7:48 PM PDT (10/25)
Length of Visible Light 11h 44m
Length of Day
10h 50m
Tomorrow will be 2m 15s shorter.
Waxing Crescent, 6% of the Moon is Illuminated
Oct 26
Waxing Crescent
Oct 30
First Quarter
Nov 6
Full
Nov 14
Last Quarter
Nov 22
New

Yesterday's Extremes

State Highs State Lows

Community

WunderPhotos

Upload Photos

1,765,112 photos uploaded!

Nearby

Snow Depth

Station Depth Elevation
Ward Creek #3 1 in 6750 ft
Echo Peak 3 in 7800 ft
CSS Lab 3 in 6900 ft
Squaw Valley 1 in 8200 ft
Rubicon #2 2 in 7500 ft

Earthquake Activity

City Distance Mag. Time & Date
Antioch, California 54 miles 2.7 6:42 AM PDT
2014-10-25
Deer Park, California 36 miles 2.8 6:40 AM PDT
2014-10-25
Minimum magnitude displayed is 2.5.

Coastal Water Temperatures

Place Temperature
Point Reyes, CA 62.1 °F
Arena Cove, CA 62.1 °F
San Francisco, CA 63.0 °F
Richmond, CA 64.0 °F

Nearby Weather Stations